sensor_id;sensor_type;location;lat;lon;timestamp;P1;durP1;ratioP1;P2;durP2;ratioP2
66751;SDS011;53663;42.676;23.238;2023-02-28T00:00:15;17.60;;;10.85;;
66751;SDS011;53663;42.676;23.238;2023-02-28T00:02:42;20.08;;;12.05;;
66751;SDS011;53663;42.676;23.238;2023-02-28T00:05:09;21.65;;;12.68;;
66751;SDS011;53663;42.676;23.238;2023-02-28T00:07:35;25.88;;;13.07;;
66751;SDS011;53663;42.676;23.238;2023-02-28T00:10:01;23.92;;;14.55;;
66751;SDS011;53663;42.676;23.238;2023-02-28T00:12:28;23.92;;;13.90;;
66751;SDS011;53663;42.676;23.238;2023-02-28T00:14:54;23.63;;;13.48;;
66751;SDS011;53663;42.676;23.238;2023-02-28T00:17:19;24.67;;;13.85;;
66751;SDS011;53663;42.676;23.238;2023-02-28T00:19:50;29.13;;;14.07;;
66751;SDS011;53663;42.676;23.238;2023-02-28T00:22:17;21.93;;;13.97;;
66751;SDS011;53663;42.676;23.238;2023-02-28T00:24:43;23.52;;;14.13;;
66751;SDS011;53663;42.676;23.238;2023-02-28T00:27:10;27.02;;;13.85;;
66751;SDS011;53663;42.676;23.238;2023-02-28T00:29:35;24.63;;;13.88;;
66751;SDS011;53663;42.676;23.238;2023-02-28T00:32:02;21.80;;;13.25;;
66751;SDS011;53663;42.676;23.238;2023-02-28T00:34:29;22.75;;;12.50;;
66751;SDS011;53663;42.676;23.238;2023-02-28T00:36:55;21.65;;;12.55;;
66751;SDS011;53663;42.676;23.238;2023-02-28T00:39:21;20.20;;;10.52;;
66751;SDS011;53663;42.676;23.238;2023-02-28T00:41:47;17.17;;;10.68;;
66751;SDS011;53663;42.676;23.238;2023-02-28T00:44:13;18.50;;;10.23;;
66751;SDS011;53663;42.676;23.238;2023-02-28T00:46:38;19.83;;;11.18;;
66751;SDS011;53663;42.676;23.238;2023-02-28T00:49:04;19.88;;;11.27;;
66751;SDS011;53663;42.676;23.238;2023-02-28T00:51:29;17.17;;;10.88;;
66751;SDS011;53663;42.676;23.238;2023-02-28T00:53:56;17.27;;;10.15;;
66751;SDS011;53663;42.676;23.238;2023-02-28T00:56:22;22.35;;;10.75;;
66751;SDS011;53663;42.676;23.238;2023-02-28T00:58:48;23.45;;;14.25;;
66751;SDS011;53663;42.676;23.238;2023-02-28T01:01:13;25.90;;;14.88;;
66751;SDS011;53663;42.676;23.238;2023-02-28T01:03:39;30.27;;;16.27;;
66751;SDS011;53663;42.676;23.238;2023-02-28T01:06:05;56.42;;;17.60;;
66751;SDS011;53663;42.676;23.238;2023-02-28T01:08:30;89.68;;;18.38;;
66751;SDS011;53663;42.676;23.238;2023-02-28T01:10:56;28.55;;;17.30;;
66751;SDS011;53663;42.676;23.238;2023-02-28T01:13:22;88.18;;;17.58;;
66751;SDS011;53663;42.676;23.238;2023-02-28T01:15:52;110.53;;;19.55;;
66751;SDS011;53663;42.676;23.238;2023-02-28T01:18:20;31.20;;;17.00;;
66751;SDS011;53663;42.676;23.238;2023-02-28T01:20:46;31.77;;;16.42;;
66751;SDS011;53663;42.676;23.238;2023-02-28T01:23:12;39.60;;;16.92;;
66751;SDS011;53663;42.676;23.238;2023-02-28T01:25:37;37.75;;;16.70;;
66751;SDS011;53663;42.676;23.238;2023-02-28T01:28:04;34.13;;;16.27;;
66751;SDS011;53663;42.676;23.238;2023-02-28T01:30:30;36.38;;;16.40;;
66751;SDS011;53663;42.676;23.238;2023-02-28T01:32:56;38.70;;;17.23;;
66751;SDS011;53663;42.676;23.238;2023-02-28T01:35:23;35.97;;;17.52;;
66751;SDS011;53663;42.676;23.238;2023-02-28T01:37:49;36.58;;;16.60;;
66751;SDS011;53663;42.676;23.238;2023-02-28T01:40:14;35.17;;;16.48;;
66751;SDS011;53663;42.676;23.238;2023-02-28T01:42:40;32.95;;;17.00;;
66751;SDS011;53663;42.676;23.238;2023-02-28T01:47:41;47.42;;;18.00;;
66751;SDS011;53663;42.676;23.238;2023-02-28T01:50:18;62.95;;;19.10;;
66751;SDS011;53663;42.676;23.238;2023-02-28T01:52:47;65.47;;;17.95;;
66751;SDS011;53663;42.676;23.238;2023-02-28T01:55:13;36.30;;;17.77;;
66751;SDS011;53663;42.676;23.238;2023-02-28T01:57:42;30.27;;;16.02;;
66751;SDS011;53663;42.676;23.238;2023-02-28T02:00:14;48.03;;;16.83;;
66751;SDS011;53663;42.676;23.238;2023-02-28T02:02:46;61.47;;;16.30;;
66751;SDS011;53663;42.676;23.238;2023-02-28T02:05:24;55.13;;;16.92;;
66751;SDS011;53663;42.676;23.238;2023-02-28T02:07:55;39.28;;;16.33;;
66751;SDS011;53663;42.676;23.238;2023-02-28T02:18:04;42.20;;;17.00;;
66751;SDS011;53663;42.676;23.238;2023-02-28T02:32:08;34.58;;;16.08;;
66751;SDS011;53663;42.676;23.238;2023-02-28T02:37:14;47.63;;;17.63;;
66751;SDS011;53663;42.676;23.238;2023-02-28T02:39:50;35.47;;;17.13;;
66751;SDS011;53663;42.676;23.238;2023-02-28T02:45:32;33.90;;;16.40;;
66751;SDS011;53663;42.676;23.238;2023-02-28T02:50:42;63.70;;;15.70;;
66751;SDS011;53663;42.676;23.238;2023-02-28T02:53:09;42.28;;;15.85;;
66751;SDS011;53663;42.676;23.238;2023-02-28T02:55:39;26.10;;;16.08;;
66751;SDS011;53663;42.676;23.238;2023-02-28T02:58:08;69.45;;;15.95;;
66751;SDS011;53663;42.676;23.238;2023-02-28T03:00:44;72.35;;;14.88;;
66751;SDS011;53663;42.676;23.238;2023-02-28T03:03:13;72.18;;;16.02;;
66751;SDS011;53663;42.676;23.238;2023-02-28T03:05:46;52.90;;;15.77;;
66751;SDS011;53663;42.676;23.238;2023-02-28T03:08:16;59.30;;;14.90;;
66751;SDS011;53663;42.676;23.238;2023-02-28T03:10:42;38.08;;;14.77;;
66751;SDS011;53663;42.676;23.238;2023-02-28T03:13:26;54.38;;;15.57;;
66751;SDS011;53663;42.676;23.238;2023-02-28T03:21:19;136.38;;;15.68;;
66751;SDS011;53663;42.676;23.238;2023-02-28T03:24:08;171.88;;;15.98;;
66751;SDS011;53663;42.676;23.238;2023-02-28T03:26:36;159.60;;;15.70;;
66751;SDS011;53663;42.676;23.238;2023-02-28T03:31:56;157.07;;;15.95;;
66751;SDS011;53663;42.676;23.238;2023-02-28T03:37:13;81.43;;;17.40;;
66751;SDS011;53663;42.676;23.238;2023-02-28T03:42:14;131.70;;;16.38;;
66751;SDS011;53663;42.676;23.238;2023-02-28T03:47:32;77.18;;;16.02;;
66751;SDS011;53663;42.676;23.238;2023-02-28T03:50:27;156.45;;;16.77;;
66751;SDS011;53663;42.676;23.238;2023-02-28T03:55:47;95.63;;;18.33;;
66751;SDS011;53663;42.676;23.238;2023-02-28T03:58:17;103.60;;;19.13;;
66751;SDS011;53663;42.676;23.238;2023-02-28T04:00:49;115.45;;;18.52;;
66751;SDS011;53663;42.676;23.238;2023-02-28T04:03:22;121.95;;;18.95;;
66751;SDS011;53663;42.676;23.238;2023-02-28T04:05:52;47.72;;;18.98;;
66751;SDS011;53663;42.676;23.238;2023-02-28T04:08:19;91.10;;;19.83;;
66751;SDS011;53663;42.676;23.238;2023-02-28T04:10:46;222.95;;;22.02;;
66751;SDS011;53663;42.676;23.238;2023-02-28T04:13:20;54.10;;;19.92;;
66751;SDS011;53663;42.676;23.238;2023-02-28T04:15:46;124.50;;;21.83;;
66751;SDS011;53663;42.676;23.238;2023-02-28T04:18:11;49.28;;;21.05;;
66751;SDS011;53663;42.676;23.238;2023-02-28T04:20:37;194.60;;;25.48;;
66751;SDS011;53663;42.676;23.238;2023-02-28T04:23:02;50.72;;;22.08;;
66751;SDS011;53663;42.676;23.238;2023-02-28T04:25:28;111.00;;;20.30;;
66751;SDS011;53663;42.676;23.238;2023-02-28T04:27:53;122.55;;;22.08;;
66751;SDS011;53663;42.676;23.238;2023-02-28T04:30:19;69.22;;;20.85;;
66751;SDS011;53663;42.676;23.238;2023-02-28T04:32:44;51.55;;;20.85;;
66751;SDS011;53663;42.676;23.238;2023-02-28T04:35:10;69.43;;;19.58;;
66751;SDS011;53663;42.676;23.238;2023-02-28T04:37:35;56.38;;;20.58;;
66751;SDS011;53663;42.676;23.238;2023-02-28T04:40:02;68.43;;;20.27;;
66751;SDS011;53663;42.676;23.238;2023-02-28T04:42:28;84.28;;;19.60;;
66751;SDS011;53663;42.676;23.238;2023-02-28T04:45:00;48.50;;;19.35;;
66751;SDS011;53663;42.676;23.238;2023-02-28T04:47:27;37.50;;;17.00;;
66751;SDS011;53663;42.676;23.238;2023-02-28T04:49:53;94.07;;;19.73;;
66751;SDS011;53663;42.676;23.238;2023-02-28T04:52:18;135.57;;;20.80;;
66751;SDS011;53663;42.676;23.238;2023-02-28T04:54:44;182.43;;;20.38;;
66751;SDS011;53663;42.676;23.238;2023-02-28T04:57:10;42.13;;;20.88;;
66751;SDS011;53663;42.676;23.238;2023-02-28T04:59:35;184.15;;;21.80;;
66751;SDS011;53663;42.676;23.238;2023-02-28T05:02:01;59.80;;;20.67;;
66751;SDS011;53663;42.676;23.238;2023-02-28T05:04:32;60.65;;;20.30;;
66751;SDS011;53663;42.676;23.238;2023-02-28T05:06:59;116.35;;;20.23;;
66751;SDS011;53663;42.676;23.238;2023-02-28T05:09:25;66.43;;;21.42;;
66751;SDS011;53663;42.676;23.238;2023-02-28T05:11:51;63.85;;;19.90;;
66751;SDS011;53663;42.676;23.238;2023-02-28T05:14:16;48.53;;;20.80;;
66751;SDS011;53663;42.676;23.238;2023-02-28T05:16:42;145.07;;;21.17;;
66751;SDS011;53663;42.676;23.238;2023-02-28T05:19:08;250.85;;;23.25;;
66751;SDS011;53663;42.676;23.238;2023-02-28T05:21:34;47.38;;;22.27;;
66751;SDS011;53663;42.676;23.238;2023-02-28T05:24:06;50.20;;;22.70;;
66751;SDS011;53663;42.676;23.238;2023-02-28T05:26:35;47.65;;;22.02;;
66751;SDS011;53663;42.676;23.238;2023-02-28T05:29:02;72.82;;;21.20;;
66751;SDS011;53663;42.676;23.238;2023-02-28T05:31:28;66.60;;;21.73;;
66751;SDS011;53663;42.676;23.238;2023-02-28T05:33:54;132.60;;;21.35;;
66751;SDS011;53663;42.676;23.238;2023-02-28T05:36:19;64.05;;;20.55;;
66751;SDS011;53663;42.676;23.238;2023-02-28T05:38:46;86.70;;;21.83;;
66751;SDS011;53663;42.676;23.238;2023-02-28T05:41:13;43.80;;;20.05;;
66751;SDS011;53663;42.676;23.238;2023-02-28T05:43:39;65.05;;;19.73;;
66751;SDS011;53663;42.676;23.238;2023-02-28T05:46:05;71.20;;;21.67;;
66751;SDS011;53663;42.676;23.238;2023-02-28T05:48:33;47.15;;;21.33;;
66751;SDS011;53663;42.676;23.238;2023-02-28T05:50:59;155.07;;;21.90;;
66751;SDS011;53663;42.676;23.238;2023-02-28T05:53:25;203.23;;;20.10;;
66751;SDS011;53663;42.676;23.238;2023-02-28T05:55:51;39.05;;;18.25;;
66751;SDS011;53663;42.676;23.238;2023-02-28T05:58:17;97.55;;;18.05;;
66751;SDS011;53663;42.676;23.238;2023-02-28T06:00:42;161.73;;;17.63;;
66751;SDS011;53663;42.676;23.238;2023-02-28T06:03:08;53.25;;;17.52;;
66751;SDS011;53663;42.676;23.238;2023-02-28T06:05:33;189.80;;;20.58;;
66751;SDS011;53663;42.676;23.238;2023-02-28T06:07:59;69.50;;;18.70;;
66751;SDS011;53663;42.676;23.238;2023-02-28T06:10:24;120.50;;;20.48;;
66751;SDS011;53663;42.676;23.238;2023-02-28T06:12:50;50.90;;;19.27;;
66751;SDS011;53663;42.676;23.238;2023-02-28T06:15:15;209.18;;;22.80;;
66751;SDS011;53663;42.676;23.238;2023-02-28T06:17:42;117.40;;;21.20;;
66751;SDS011;53663;42.676;23.238;2023-02-28T06:20:08;139.45;;;21.33;;
66751;SDS011;53663;42.676;23.238;2023-02-28T06:22:35;67.80;;;21.00;;
66751;SDS011;53663;42.676;23.238;2023-02-28T06:25:02;51.75;;;19.45;;
66751;SDS011;53663;42.676;23.238;2023-02-28T06:27:30;42.83;;;19.80;;
66751;SDS011;53663;42.676;23.238;2023-02-28T06:29:56;54.97;;;20.45;;
66751;SDS011;53663;42.676;23.238;2023-02-28T06:32:21;84.45;;;22.63;;
66751;SDS011;53663;42.676;23.238;2023-02-28T06:34:47;40.13;;;19.20;;
66751;SDS011;53663;42.676;23.238;2023-02-28T06:37:13;41.85;;;19.67;;
66751;SDS011;53663;42.676;23.238;2023-02-28T06:39:38;70.82;;;33.25;;
66751;SDS011;53663;42.676;23.238;2023-02-28T06:42:04;48.92;;;23.25;;
66751;SDS011;53663;42.676;23.238;2023-02-28T06:44:30;42.55;;;20.00;;
66751;SDS011;53663;42.676;23.238;2023-02-28T06:47:00;64.10;;;25.40;;
66751;SDS011;53663;42.676;23.238;2023-02-28T06:51:56;68.70;;;24.63;;
66751;SDS011;53663;42.676;23.238;2023-02-28T06:54:22;77.40;;;23.88;;
66751;SDS011;53663;42.676;23.238;2023-02-28T06:56:47;62.17;;;22.27;;
66751;SDS011;53663;42.676;23.238;2023-02-28T06:59:13;86.80;;;24.63;;
66751;SDS011;53663;42.676;23.238;2023-02-28T07:01:39;82.28;;;23.35;;
66751;SDS011;53663;42.676;23.238;2023-02-28T07:04:05;84.18;;;23.55;;
66751;SDS011;53663;42.676;23.238;2023-02-28T07:06:32;62.55;;;25.02;;
66751;SDS011;53663;42.676;23.238;2023-02-28T07:08:57;67.20;;;24.45;;
66751;SDS011;53663;42.676;23.238;2023-02-28T07:11:24;74.20;;;25.67;;
66751;SDS011;53663;42.676;23.238;2023-02-28T07:13:51;66.30;;;24.02;;
66751;SDS011;53663;42.676;23.238;2023-02-28T07:16:17;89.50;;;26.27;;
66751;SDS011;53663;42.676;23.238;2023-02-28T07:18:43;74.40;;;26.52;;
66751;SDS011;53663;42.676;23.238;2023-02-28T07:21:11;75.32;;;27.27;;
66751;SDS011;53663;42.676;23.238;2023-02-28T07:23:37;58.72;;;25.02;;
66751;SDS011;53663;42.676;23.238;2023-02-28T07:26:04;73.13;;;25.83;;
66751;SDS011;53663;42.676;23.238;2023-02-28T07:28:31;75.50;;;26.33;;
66751;SDS011;53663;42.676;23.238;2023-02-28T07:30:56;70.00;;;25.27;;
66751;SDS011;53663;42.676;23.238;2023-02-28T07:33:22;79.07;;;26.10;;
66751;SDS011;53663;42.676;23.238;2023-02-28T07:35:48;71.03;;;26.63;;
66751;SDS011;53663;42.676;23.238;2023-02-28T07:38:15;79.80;;;27.80;;
66751;SDS011;53663;42.676;23.238;2023-02-28T07:40:40;65.60;;;26.95;;
66751;SDS011;53663;42.676;23.238;2023-02-28T07:43:06;72.18;;;29.38;;
66751;SDS011;53663;42.676;23.238;2023-02-28T07:45:31;65.82;;;28.92;;
66751;SDS011;53663;42.676;23.238;2023-02-28T07:47:59;63.80;;;28.50;;
66751;SDS011;53663;42.676;23.238;2023-02-28T07:50:25;63.20;;;26.70;;
66751;SDS011;53663;42.676;23.238;2023-02-28T07:52:50;56.90;;;26.45;;
66751;SDS011;53663;42.676;23.238;2023-02-28T07:55:16;72.18;;;28.83;;
66751;SDS011;53663;42.676;23.238;2023-02-28T07:57:42;77.65;;;28.92;;
66751;SDS011;53663;42.676;23.238;2023-02-28T08:00:09;65.22;;;27.83;;
66751;SDS011;53663;42.676;23.238;2023-02-28T08:02:39;81.07;;;32.95;;
66751;SDS011;53663;42.676;23.238;2023-02-28T08:05:05;73.13;;;30.30;;
66751;SDS011;53663;42.676;23.238;2023-02-28T08:07:31;71.32;;;27.70;;
66751;SDS011;53663;42.676;23.238;2023-02-28T08:09:58;69.43;;;28.38;;
66751;SDS011;53663;42.676;23.238;2023-02-28T08:12:23;77.72;;;30.58;;
66751;SDS011;53663;42.676;23.238;2023-02-28T08:14:49;68.38;;;27.70;;
66751;SDS011;53663;42.676;23.238;2023-02-28T08:17:14;67.60;;;29.00;;
66751;SDS011;53663;42.676;23.238;2023-02-28T08:19:40;63.22;;;27.42;;
66751;SDS011;53663;42.676;23.238;2023-02-28T08:22:05;69.72;;;27.67;;
66751;SDS011;53663;42.676;23.238;2023-02-28T08:24:31;56.17;;;25.00;;
66751;SDS011;53663;42.676;23.238;2023-02-28T08:26:56;62.53;;;26.73;;
66751;SDS011;53663;42.676;23.238;2023-02-28T08:29:22;60.05;;;25.98;;
66751;SDS011;53663;42.676;23.238;2023-02-28T08:31:48;61.22;;;23.88;;
66751;SDS011;53663;42.676;23.238;2023-02-28T08:34:14;62.58;;;25.92;;
66751;SDS011;53663;42.676;23.238;2023-02-28T08:36:40;54.25;;;24.45;;
66751;SDS011;53663;42.676;23.238;2023-02-28T08:39:07;54.97;;;24.80;;
66751;SDS011;53663;42.676;23.238;2023-02-28T08:41:34;60.28;;;24.17;;
66751;SDS011;53663;42.676;23.238;2023-02-28T08:43:59;66.68;;;26.25;;
66751;SDS011;53663;42.676;23.238;2023-02-28T08:46:25;70.85;;;25.65;;
66751;SDS011;53663;42.676;23.238;2023-02-28T08:48:54;61.90;;;26.98;;
66751;SDS011;53663;42.676;23.238;2023-02-28T08:51:21;63.17;;;26.17;;
66751;SDS011;53663;42.676;23.238;2023-02-28T08:53:54;57.35;;;26.38;;
66751;SDS011;53663;42.676;23.238;2023-02-28T08:56:22;67.40;;;26.52;;
66751;SDS011;53663;42.676;23.238;2023-02-28T08:58:49;59.38;;;25.60;;
66751;SDS011;53663;42.676;23.238;2023-02-28T09:01:19;65.50;;;27.27;;
66751;SDS011;53663;42.676;23.238;2023-02-28T09:03:47;62.90;;;28.70;;
66751;SDS011;53663;42.676;23.238;2023-02-28T09:06:15;63.80;;;26.98;;
66751;SDS011;53663;42.676;23.238;2023-02-28T09:08:42;68.05;;;26.73;;
66751;SDS011;53663;42.676;23.238;2023-02-28T09:11:08;67.53;;;29.20;;
66751;SDS011;53663;42.676;23.238;2023-02-28T09:13:34;76.65;;;29.05;;
66751;SDS011;53663;42.676;23.238;2023-02-28T09:16:01;80.13;;;31.23;;
66751;SDS011;53663;42.676;23.238;2023-02-28T09:18:28;81.03;;;29.88;;
66751;SDS011;53663;42.676;23.238;2023-02-28T09:20:54;71.55;;;29.20;;
66751;SDS011;53663;42.676;23.238;2023-02-28T09:23:20;68.18;;;30.27;;
66751;SDS011;53663;42.676;23.238;2023-02-28T09:25:50;66.85;;;30.15;;
66751;SDS011;53663;42.676;23.238;2023-02-28T09:28:17;65.70;;;29.98;;
66751;SDS011;53663;42.676;23.238;2023-02-28T09:30:47;78.15;;;32.15;;
66751;SDS011;53663;42.676;23.238;2023-02-28T09:33:14;70.85;;;28.75;;
66751;SDS011;53663;42.676;23.238;2023-02-28T09:35:40;69.00;;;30.23;;
66751;SDS011;53663;42.676;23.238;2023-02-28T09:38:06;74.35;;;30.95;;
66751;SDS011;53663;42.676;23.238;2023-02-28T09:40:49;75.78;;;30.48;;
66751;SDS011;53663;42.676;23.238;2023-02-28T09:43:17;76.35;;;32.05;;
66751;SDS011;53663;42.676;23.238;2023-02-28T09:45:48;78.55;;;31.25;;
66751;SDS011;53663;42.676;23.238;2023-02-28T09:48:19;77.10;;;33.08;;
66751;SDS011;53663;42.676;23.238;2023-02-28T09:50:52;80.25;;;32.13;;
66751;SDS011;53663;42.676;23.238;2023-02-28T09:53:26;70.00;;;30.75;;
66751;SDS011;53663;42.676;23.238;2023-02-28T09:55:59;77.95;;;30.88;;
66751;SDS011;53663;42.676;23.238;2023-02-28T10:06:28;76.32;;;31.50;;
66751;SDS011;53663;42.676;23.238;2023-02-28T10:09:05;60.67;;;30.50;;
66751;SDS011;53663;42.676;23.238;2023-02-28T10:11:38;77.55;;;31.27;;
66751;SDS011;53663;42.676;23.238;2023-02-28T10:14:09;69.25;;;30.63;;
66751;SDS011;53663;42.676;23.238;2023-02-28T10:16:46;58.10;;;30.33;;
66751;SDS011;53663;42.676;23.238;2023-02-28T10:19:27;66.05;;;29.98;;
66751;SDS011;53663;42.676;23.238;2023-02-28T10:22:00;63.70;;;30.70;;
66751;SDS011;53663;42.676;23.238;2023-02-28T10:27:01;55.38;;;27.88;;
66751;SDS011;53663;42.676;23.238;2023-02-28T10:29:37;53.75;;;28.52;;
66751;SDS011;53663;42.676;23.238;2023-02-28T10:32:08;61.38;;;30.70;;
66751;SDS011;53663;42.676;23.238;2023-02-28T10:34:36;63.58;;;29.50;;
66751;SDS011;53663;42.676;23.238;2023-02-28T10:37:01;58.92;;;26.65;;
66751;SDS011;53663;42.676;23.238;2023-02-28T10:42:19;71.72;;;28.40;;
66751;SDS011;53663;42.676;23.238;2023-02-28T10:44:45;67.80;;;29.58;;
66751;SDS011;53663;42.676;23.238;2023-02-28T10:47:17;61.60;;;27.80;;
66751;SDS011;53663;42.676;23.238;2023-02-28T10:49:48;65.20;;;28.83;;
66751;SDS011;53663;42.676;23.238;2023-02-28T10:52:17;49.70;;;20.98;;
66751;SDS011;53663;42.676;23.238;2023-02-28T10:57:49;52.05;;;21.75;;
66751;SDS011;53663;42.676;23.238;2023-02-28T11:00:21;39.47;;;19.88;;
66751;SDS011;53663;42.676;23.238;2023-02-28T11:02:50;44.00;;;19.10;;
66751;SDS011;53663;42.676;23.238;2023-02-28T11:05:35;38.92;;;13.70;;
66751;SDS011;53663;42.676;23.238;2023-02-28T11:08:06;29.40;;;12.38;;
66751;SDS011;53663;42.676;23.238;2023-02-28T11:10:37;26.15;;;11.75;;
66751;SDS011;53663;42.676;23.238;2023-02-28T11:13:03;23.45;;;9.73;;
66751;SDS011;53663;42.676;23.238;2023-02-28T11:15:31;25.77;;;11.05;;
66751;SDS011;53663;42.676;23.238;2023-02-28T11:17:59;27.08;;;10.75;;
66751;SDS011;53663;42.676;23.238;2023-02-28T11:20:28;21.30;;;8.88;;
66751;SDS011;53663;42.676;23.238;2023-02-28T11:22:57;23.23;;;9.50;;
66751;SDS011;53663;42.676;23.238;2023-02-28T11:25:26;25.65;;;9.45;;
66751;SDS011;53663;42.676;23.238;2023-02-28T11:27:59;22.55;;;10.52;;
66751;SDS011;53663;42.676;23.238;2023-02-28T11:32:52;19.45;;;9.38;;
66751;SDS011;53663;42.676;23.238;2023-02-28T11:35:29;37.50;;;10.98;;
66751;SDS011;53663;42.676;23.238;2023-02-28T11:37:59;27.23;;;10.13;;
66751;SDS011;53663;42.676;23.238;2023-02-28T11:46:01;23.75;;;10.07;;
66751;SDS011;53663;42.676;23.238;2023-02-28T11:57:00;22.35;;;11.35;;
66751;SDS011;53663;42.676;23.238;2023-02-28T12:02:23;29.23;;;10.93;;
66751;SDS011;53663;42.676;23.238;2023-02-28T12:11:01;28.35;;;10.70;;
66751;SDS011;53663;42.676;23.238;2023-02-28T12:13:29;25.05;;;10.38;;
66751;SDS011;53663;42.676;23.238;2023-02-28T12:16:33;29.48;;;12.40;;
66751;SDS011;53663;42.676;23.238;2023-02-28T12:22:00;25.50;;;11.02;;
66751;SDS011;53663;42.676;23.238;2023-02-28T12:32:18;28.13;;;10.80;;
66751;SDS011;53663;42.676;23.238;2023-02-28T12:34:58;27.00;;;11.60;;
66751;SDS011;53663;42.676;23.238;2023-02-28T12:37:33;34.40;;;12.52;;
66751;SDS011;53663;42.676;23.238;2023-02-28T12:40:06;29.77;;;13.35;;
66751;SDS011;53663;42.676;23.238;2023-02-28T12:42:42;26.52;;;11.93;;
66751;SDS011;53663;42.676;23.238;2023-02-28T12:45:19;34.33;;;12.98;;
66751;SDS011;53663;42.676;23.238;2023-02-28T12:47:50;33.65;;;12.27;;
66751;SDS011;53663;42.676;23.238;2023-02-28T12:50:21;24.50;;;11.73;;
66751;SDS011;53663;42.676;23.238;2023-02-28T13:01:23;24.88;;;12.23;;
66751;SDS011;53663;42.676;23.238;2023-02-28T13:07:06;28.83;;;11.38;;
66751;SDS011;53663;42.676;23.238;2023-02-28T13:09:53;23.42;;;11.05;;
66751;SDS011;53663;42.676;23.238;2023-02-28T13:12:20;25.40;;;10.25;;
66751;SDS011;53663;42.676;23.238;2023-02-28T13:14:48;27.40;;;11.10;;
66751;SDS011;53663;42.676;23.238;2023-02-28T13:17:21;26.25;;;11.07;;
66751;SDS011;53663;42.676;23.238;2023-02-28T13:24:57;28.92;;;10.80;;
66751;SDS011;53663;42.676;23.238;2023-02-28T13:27:32;19.23;;;9.20;;
66751;SDS011;53663;42.676;23.238;2023-02-28T13:30:00;25.30;;;10.52;;
66751;SDS011;53663;42.676;23.238;2023-02-28T13:32:31;26.05;;;11.30;;
66751;SDS011;53663;42.676;23.238;2023-02-28T13:39:50;25.80;;;11.23;;
66751;SDS011;53663;42.676;23.238;2023-02-28T13:50:14;28.90;;;10.35;;
66751;SDS011;53663;42.676;23.238;2023-02-28T14:06:30;23.20;;;8.23;;
66751;SDS011;53663;42.676;23.238;2023-02-28T14:11:46;24.35;;;8.50;;
66751;SDS011;53663;42.676;23.238;2023-02-28T14:16:59;24.10;;;8.20;;
66751;SDS011;53663;42.676;23.238;2023-02-28T14:19:29;21.58;;;9.02;;
66751;SDS011;53663;42.676;23.238;2023-02-28T14:25:03;21.98;;;8.95;;
66751;SDS011;53663;42.676;23.238;2023-02-28T14:37:41;27.50;;;9.40;;
66751;SDS011;53663;42.676;23.238;2023-02-28T14:40:12;22.83;;;8.52;;
66751;SDS011;53663;42.676;23.238;2023-02-28T14:42:45;28.23;;;9.30;;
66751;SDS011;53663;42.676;23.238;2023-02-28T14:45:19;26.30;;;8.43;;
66751;SDS011;53663;42.676;23.238;2023-02-28T14:47:46;26.20;;;9.80;;
66751;SDS011;53663;42.676;23.238;2023-02-28T14:50:18;36.28;;;10.23;;
66751;SDS011;53663;42.676;23.238;2023-02-28T14:52:53;25.35;;;9.32;;
66751;SDS011;53663;42.676;23.238;2023-02-28T14:57:56;20.45;;;9.23;;
66751;SDS011;53663;42.676;23.238;2023-02-28T15:00:27;27.08;;;9.88;;
66751;SDS011;53663;42.676;23.238;2023-02-28T15:02:59;19.70;;;8.48;;
66751;SDS011;53663;42.676;23.238;2023-02-28T15:08:15;27.00;;;8.38;;
66751;SDS011;53663;42.676;23.238;2023-02-28T15:10:45;22.20;;;8.82;;
66751;SDS011;53663;42.676;23.238;2023-02-28T15:13:16;30.35;;;8.35;;
66751;SDS011;53663;42.676;23.238;2023-02-28T15:20:55;27.95;;;8.82;;
66751;SDS011;53663;42.676;23.238;2023-02-28T15:23:25;26.15;;;7.95;;
66751;SDS011;53663;42.676;23.238;2023-02-28T15:25:51;27.77;;;9.75;;
66751;SDS011;53663;42.676;23.238;2023-02-28T15:28:18;21.67;;;9.18;;
66751;SDS011;53663;42.676;23.238;2023-02-28T15:30:51;27.02;;;9.18;;
66751;SDS011;53663;42.676;23.238;2023-02-28T15:35:45;22.88;;;8.65;;
66751;SDS011;53663;42.676;23.238;2023-02-28T15:38:24;29.58;;;8.43;;
66751;SDS011;53663;42.676;23.238;2023-02-28T15:40:57;19.30;;;8.85;;
66751;SDS011;53663;42.676;23.238;2023-02-28T15:45:56;20.50;;;8.00;;
66751;SDS011;53663;42.676;23.238;2023-02-28T15:48:23;22.85;;;8.10;;
66751;SDS011;53663;42.676;23.238;2023-02-28T15:51:35;17.20;;;7.50;;
66751;SDS011;53663;42.676;23.238;2023-02-28T15:56:33;26.02;;;8.55;;
66751;SDS011;53663;42.676;23.238;2023-02-28T15:59:04;22.75;;;8.57;;
66751;SDS011;53663;42.676;23.238;2023-02-28T16:01:36;22.60;;;8.68;;
66751;SDS011;53663;42.676;23.238;2023-02-28T16:09:03;18.75;;;6.93;;
66751;SDS011;53663;42.676;23.238;2023-02-28T16:11:33;14.93;;;7.60;;
66751;SDS011;53663;42.676;23.238;2023-02-28T16:14:02;16.90;;;7.87;;
66751;SDS011;53663;42.676;23.238;2023-02-28T16:16:28;12.82;;;6.72;;
66751;SDS011;53663;42.676;23.238;2023-02-28T16:18:53;21.35;;;7.20;;
66751;SDS011;53663;42.676;23.238;2023-02-28T16:21:20;16.48;;;7.57;;
66751;SDS011;53663;42.676;23.238;2023-02-28T16:23:45;15.95;;;7.82;;
66751;SDS011;53663;42.676;23.238;2023-02-28T16:26:16;17.05;;;7.30;;
66751;SDS011;53663;42.676;23.238;2023-02-28T16:28:47;18.50;;;7.60;;
66751;SDS011;53663;42.676;23.238;2023-02-28T16:31:14;16.60;;;7.78;;
66751;SDS011;53663;42.676;23.238;2023-02-28T16:33:41;18.45;;;7.90;;
66751;SDS011;53663;42.676;23.238;2023-02-28T16:36:19;15.02;;;8.18;;
66751;SDS011;53663;42.676;23.238;2023-02-28T16:38:46;10.85;;;7.28;;
66751;SDS011;53663;42.676;23.238;2023-02-28T16:41:12;13.57;;;7.63;;
66751;SDS011;53663;42.676;23.238;2023-02-28T16:43:50;13.48;;;7.15;;
66751;SDS011;53663;42.676;23.238;2023-02-28T16:46:17;13.23;;;7.22;;
66751;SDS011;53663;42.676;23.238;2023-02-28T16:48:44;12.65;;;5.50;;
66751;SDS011;53663;42.676;23.238;2023-02-28T16:51:16;12.93;;;6.90;;
66751;SDS011;53663;42.676;23.238;2023-02-28T16:53:43;12.40;;;6.85;;
66751;SDS011;53663;42.676;23.238;2023-02-28T16:58:43;12.05;;;7.00;;
66751;SDS011;53663;42.676;23.238;2023-02-28T17:01:09;12.80;;;6.38;;
66751;SDS011;53663;42.676;23.238;2023-02-28T17:03:35;12.38;;;6.00;;
66751;SDS011;53663;42.676;23.238;2023-02-28T17:06:02;12.70;;;6.35;;
66751;SDS011;53663;42.676;23.238;2023-02-28T17:08:28;12.63;;;6.97;;
66751;SDS011;53663;42.676;23.238;2023-02-28T17:10:54;12.48;;;6.60;;
66751;SDS011;53663;42.676;23.238;2023-02-28T17:13:20;11.40;;;6.60;;
66751;SDS011;53663;42.676;23.238;2023-02-28T17:15:46;14.02;;;6.30;;
66751;SDS011;53663;42.676;23.238;2023-02-28T17:18:13;10.55;;;5.88;;
66751;SDS011;53663;42.676;23.238;2023-02-28T17:20:41;9.15;;;5.53;;
66751;SDS011;53663;42.676;23.238;2023-02-28T17:23:07;8.88;;;5.00;;
66751;SDS011;53663;42.676;23.238;2023-02-28T17:25:33;9.55;;;5.05;;
66751;SDS011;53663;42.676;23.238;2023-02-28T17:27:59;12.20;;;6.13;;
66751;SDS011;53663;42.676;23.238;2023-02-28T17:30:25;11.52;;;5.55;;